Time;durP1;ratioP1;P1;durP2;ratioP2;P2;SDS_P1;SDS_P2;PMS_P1;PMS_P2;Temp;Humidity;BMP_temperature;BMP_pressure;BME280_temperature;BME280_humidity;BME280_pressure;Samples;Min_cycle;Max_cycle;Signal;HPM_P1;HPM_P2
2023/03/16 00:02:15;;;;;;;9.97;4.07;;;2.30;99.90;;;;;;7806366;28;20270;-91
2023/03/16 00:06:06;;;;;;;7.17;3.90;;;2.20;99.90;;;;;;7785325;28;20211;-91
2023/03/16 00:09:53;;;;;;;8.23;4.10;;;2.20;99.90;;;;;;7791484;28;20210;-91
2023/03/16 00:13:39;;;;;;;9.37;4.03;;;2.20;99.90;;;;;;7792140;28;20199;-91
2023/03/16 00:17:25;;;;;;;10.27;4.13;;;2.20;99.90;;;;;;7775263;28;20341;-91
2023/03/16 00:21:13;;;;;;;9.03;3.90;;;2.20;99.90;;;;;;7776125;28;20191;-92
2023/03/16 00:24:58;;;;;;;9.87;4.40;;;2.20;99.90;;;;;;7827698;28;20191;-93
2023/03/16 00:28:44;;;;;;;7.13;4.10;;;2.30;99.90;;;;;;7788504;28;20292;-91
2023/03/16 00:32:33;;;;;;;9.73;4.53;;;2.20;99.90;;;;;;7775143;28;20182;-92
2023/03/16 00:36:18;;;;;;;12.83;4.27;;;2.30;99.90;;;;;;7776929;28;20758;-91
2023/03/16 00:40:06;;;;;;;11.63;4.37;;;2.30;99.90;;;;;;7780458;28;20623;-91
2023/03/16 00:43:52;;;;;;;9.57;4.50;;;2.20;99.90;;;;;;7805200;28;20704;-91
2023/03/16 00:47:38;;;;;;;6.87;3.63;;;2.10;99.90;;;;;;7805544;28;20194;-91
2023/03/16 00:51:23;;;;;;;7.73;4.37;;;2.20;99.90;;;;;;7791983;28;20182;-90
2023/03/16 00:55:09;;;;;;;12.27;4.50;;;2.00;99.90;;;;;;7776281;28;20703;-91
2023/03/16 00:58:56;;;;;;;6.87;3.80;;;2.00;99.90;;;;;;7776052;28;20921;-91
2023/03/16 01:02:45;;;;;;;10.23;4.37;;;1.90;99.90;;;;;;7775900;28;20179;-92
2023/03/16 01:06:31;;;;;;;9.73;4.77;;;1.80;99.90;;;;;;7775737;28;20186;-91
2023/03/16 01:10:17;;;;;;;6.23;4.00;;;1.80;99.90;;;;;;7776147;28;20641;-92
2023/03/16 01:14:03;;;;;;;12.30;4.70;;;1.70;99.90;;;;;;7775984;28;20198;-91
2023/03/16 01:17:48;;;;;;;10.50;5.00;;;1.90;99.90;;;;;;7802025;28;20202;-91
2023/03/16 01:21:37;;;;;;;6.70;4.40;;;1.70;99.90;;;;;;7806550;28;20270;-91
2023/03/16 01:25:23;;;;;;;8.87;4.43;;;1.70;99.90;;;;;;7806005;28;20232;-91
2023/03/16 01:29:08;;;;;;;9.70;4.97;;;1.70;99.90;;;;;;7806242;28;20206;-91
2023/03/16 01:32:54;;;;;;;11.17;4.77;;;1.80;99.90;;;;;;7808443;28;20189;-91
2023/03/16 01:36:39;;;;;;;11.67;5.63;;;1.60;99.90;;;;;;7806711;28;20181;-91
2023/03/16 01:40:25;;;;;;;11.00;5.23;;;1.60;99.90;;;;;;7804885;28;20174;-91
2023/03/16 01:44:34;;;;;;;9.43;5.07;;;1.60;99.90;;;;;;7804339;28;20205;-91
2023/03/16 01:48:23;;;;;;;10.80;4.57;;;1.50;99.90;;;;;;7804590;28;20178;-91
2023/03/16 01:52:20;;;;;;;8.67;4.70;;;1.30;99.90;;;;;;7804899;28;20263;-91
2023/03/16 01:56:43;;;;;;;11.27;5.57;;;1.30;99.90;;;;;;7806203;28;20205;-91
2023/03/16 02:00:32;;;;;;;11.63;4.70;;;1.30;99.90;;;;;;7804979;28;20630;-92
2023/03/16 02:04:57;;;;;;;12.00;4.67;;;1.40;99.90;;;;;;7804127;28;20202;-92
2023/03/16 02:08:44;;;;;;;8.53;5.00;;;1.40;99.90;;;;;;7723980;28;20183;-91
2023/03/16 02:12:30;;;;;;;8.83;5.20;;;1.50;99.90;;;;;;7724085;28;20184;-91
2023/03/16 02:16:18;;;;;;;7.40;4.83;;;1.50;99.90;;;;;;7741216;28;20372;-91
2023/03/16 02:20:23;;;;;;;11.07;5.17;;;1.30;99.90;;;;;;7732180;28;20220;-94
2023/03/16 02:24:09;;;;;;;12.00;5.87;;;1.20;99.90;;;;;;7766875;28;20779;-91
2023/03/16 02:28:24;;;;;;;12.43;5.23;;;1.20;99.90;;;;;;7729944;28;20192;-91
2023/03/16 02:32:10;;;;;;;9.93;4.93;;;1.00;99.90;;;;;;7729988;28;20512;-91
2023/03/16 02:35:56;;;;;;;8.20;4.80;;;0.90;99.90;;;;;;7732238;28;20196;-91
2023/03/16 02:39:42;;;;;;;14.10;5.43;;;0.80;99.90;;;;;;7729405;28;20566;-91
2023/03/16 02:43:32;;;;;;;9.50;4.97;;;0.70;99.90;;;;;;7739078;28;20492;-91
2023/03/16 02:47:44;;;;;;;13.67;6.47;;;0.70;99.90;;;;;;7779181;28;20645;-91
2023/03/16 02:51:31;;;;;;;12.97;6.57;;;0.90;99.90;;;;;;7774641;28;20246;-91
2023/03/16 02:55:16;;;;;;;11.00;6.40;;;1.00;99.90;;;;;;7777892;28;20241;-92
2023/03/16 02:59:02;;;;;;;15.87;6.70;;;1.10;99.90;;;;;;7805606;28;20191;-91
2023/03/16 03:02:48;;;;;;;13.20;6.60;;;1.20;99.90;;;;;;7794042;28;20167;-92
2023/03/16 03:06:33;;;;;;;13.13;6.70;;;1.20;99.90;;;;;;7778035;28;20335;-91
2023/03/16 03:10:19;;;;;;;10.63;6.37;;;1.30;99.90;;;;;;7777802;28;20592;-92
2023/03/16 03:14:05;;;;;;;12.80;6.07;;;1.30;99.90;;;;;;7777276;28;20202;-92
2023/03/16 03:17:50;;;;;;;14.23;6.87;;;1.20;99.90;;;;;;7777301;28;20601;-92
2023/03/16 03:21:37;;;;;;;10.27;5.67;;;1.20;99.90;;;;;;7781250;28;20266;-92
2023/03/16 03:25:22;;;;;;;11.17;5.77;;;1.40;99.90;;;;;;7799868;28;20198;-92
2023/03/16 03:29:09;;;;;;;12.00;6.13;;;1.20;99.90;;;;;;7807227;28;20218;-91
2023/03/16 03:32:55;;;;;;;10.70;5.50;;;1.30;99.90;;;;;;7807251;28;20749;-91
2023/03/16 03:36:41;;;;;;;9.60;5.07;;;1.20;99.90;;;;;;7807554;28;20187;-91
2023/03/16 03:40:26;;;;;;;10.10;5.50;;;1.20;99.90;;;;;;7807431;28;20225;-92
2023/03/16 03:44:12;;;;;;;10.47;5.23;;;1.20;99.90;;;;;;7807072;28;20203;-91
2023/03/16 03:47:58;;;;;;;9.77;5.37;;;1.20;99.90;;;;;;7807187;28;20183;-92
2023/03/16 03:51:43;;;;;;;10.30;5.13;;;1.10;99.90;;;;;;7807126;28;20716;-91
2023/03/16 03:55:30;;;;;;;11.90;5.20;;;1.10;99.90;;;;;;7792589;28;20235;-91
2023/03/16 03:59:15;;;;;;;9.47;4.73;;;1.10;99.90;;;;;;7776435;28;20238;-91
2023/03/16 04:03:01;;;;;;;8.67;4.40;;;0.90;99.90;;;;;;7796180;28;20202;-92
2023/03/16 04:06:47;;;;;;;9.80;5.10;;;0.90;99.90;;;;;;7807171;28;20208;-92
2023/03/16 04:10:32;;;;;;;9.80;4.60;;;0.80;99.90;;;;;;7807627;28;20171;-92
2023/03/16 04:14:18;;;;;;;8.93;5.37;;;0.80;99.90;;;;;;7807649;28;20230;-92
2023/03/16 04:18:04;;;;;;;13.33;5.33;;;0.80;99.90;;;;;;7811139;28;20195;-91
2023/03/16 04:21:50;;;;;;;9.27;5.80;;;0.80;99.90;;;;;;7835035;28;20508;-93
2023/03/16 04:25:37;;;;;;;13.10;5.43;;;0.80;99.90;;;;;;7820110;28;20758;-90
2023/03/16 04:29:24;;;;;;;8.87;4.53;;;0.90;99.90;;;;;;7808222;28;20305;-91
2023/03/16 04:33:09;;;;;;;8.73;4.70;;;0.80;99.90;;;;;;7800166;28;20202;-91
2023/03/16 04:36:55;;;;;;;8.70;4.90;;;0.80;99.90;;;;;;7805677;28;20228;-91
2023/03/16 04:40:47;;;;;;;11.60;5.30;;;0.80;99.90;;;;;;7806045;28;20210;-91
2023/03/16 04:44:32;;;;;;;9.17;4.90;;;0.80;99.90;;;;;;7807282;28;20795;-91
2023/03/16 04:48:18;;;;;;;9.60;5.20;;;0.80;99.90;;;;;;7807258;28;20183;-91
2023/03/16 04:52:04;;;;;;;11.80;5.10;;;0.80;99.90;;;;;;7806886;28;20557;-92
2023/03/16 04:55:50;;;;;;;18.40;9.33;;;1.00;99.90;;;;;;7807006;28;20206;-91
2023/03/16 04:59:35;;;;;;;19.93;11.00;;;0.80;99.90;;;;;;7792652;28;20209;-92
2023/03/16 05:03:21;;;;;;;14.80;8.70;;;0.80;99.90;;;;;;7794112;28;20669;-91
2023/03/16 05:07:07;;;;;;;11.80;6.83;;;0.80;99.90;;;;;;7806730;28;20645;-91
2023/03/16 05:10:58;;;;;;;13.40;7.40;;;0.80;99.90;;;;;;7807132;28;20273;-88
2023/03/16 05:14:57;;;;;;;15.80;7.57;;;0.80;99.90;;;;;;7795238;28;20201;-90
2023/03/16 05:18:43;;;;;;;11.77;5.27;;;0.80;99.90;;;;;;7811015;28;20203;-90
2023/03/16 05:22:28;;;;;;;10.67;5.40;;;0.70;99.90;;;;;;7802519;28;20660;-89
2023/03/16 05:26:14;;;;;;;11.47;4.80;;;0.70;99.90;;;;;;7792199;28;20215;-90
2023/03/16 05:30:00;;;;;;;9.50;5.00;;;0.70;99.90;;;;;;7789968;28;20199;-90
2023/03/16 05:33:45;;;;;;;10.30;5.10;;;0.70;99.90;;;;;;7807211;28;20214;-90
2023/03/16 05:37:36;;;;;;;12.37;5.50;;;0.70;99.90;;;;;;7792168;28;20207;-90
2023/03/16 05:41:22;;;;;;;20.50;7.73;;;0.70;99.90;;;;;;7804798;28;20178;-90
2023/03/16 05:45:08;;;;;;;17.80;8.67;;;0.70;99.90;;;;;;7789690;28;20215;-89
2023/03/16 05:48:54;;;;;;;18.10;9.03;;;0.70;99.90;;;;;;7797621;28;20229;-89
2023/03/16 05:52:40;;;;;;;32.03;12.33;;;0.70;99.90;;;;;;7798497;28;20183;-89
2023/03/16 05:56:27;;;;;;;60.00;19.03;;;0.60;99.90;;;;;;7789686;28;20293;-88
2023/03/16 06:00:15;;;;;;;56.23;20.10;;;0.60;99.90;;;;;;7790834;28;20269;-90
2023/03/16 06:04:02;;;;;;;51.83;16.77;;;0.60;99.90;;;;;;7810582;28;20608;-91
2023/03/16 06:07:49;;;;;;;53.03;19.97;;;0.60;99.90;;;;;;7811302;28;20183;-88
2023/03/16 06:11:34;;;;;;;46.00;17.13;;;0.60;99.90;;;;;;7813505;28;20182;-87
2023/03/16 06:15:25;;;;;;;44.83;16.60;;;0.60;99.90;;;;;;7812946;28;20238;-90
2023/03/16 06:19:11;;;;;;;24.50;10.47;;;0.60;99.90;;;;;;7816491;28;20213;-89
2023/03/16 06:22:57;;;;;;;19.73;8.90;;;0.80;99.90;;;;;;7843848;28;20581;-87
2023/03/16 06:27:01;;;;;;;19.23;7.73;;;0.70;99.90;;;;;;7812228;28;20256;-86
2023/03/16 06:35:29;;;;;;;14.87;7.37;;;0.70;99.90;;;;;;7809615;28;20285;-90
2023/03/16 06:39:15;;;;;;;13.83;6.27;;;0.70;99.90;;;;;;7813017;28;20221;-90
2023/03/16 06:43:00;;;;;;;10.30;4.83;;;0.70;99.90;;;;;;7815013;28;20565;-90
2023/03/16 06:46:46;;;;;;;8.20;4.40;;;0.80;99.90;;;;;;7814680;28;20182;-90
2023/03/16 06:50:32;;;;;;;14.20;4.97;;;0.90;99.90;;;;;;7818435;28;20183;-91
2023/03/16 06:54:17;;;;;;;7.63;4.63;;;0.80;99.90;;;;;;7825546;28;20746;-90
2023/03/16 06:58:03;;;;;;;11.13;4.97;;;0.80;99.90;;;;;;7818766;28;20217;-90
2023/03/16 07:01:49;;;;;;;8.60;4.40;;;0.80;99.90;;;;;;7812703;28;20190;-90
2023/03/16 07:05:35;;;;;;;8.67;4.50;;;0.90;99.90;;;;;;7811163;28;20221;-89
2023/03/16 07:09:21;;;;;;;12.20;4.30;;;1.00;99.90;;;;;;7812367;28;20213;-89
2023/03/16 07:13:06;;;;;;;9.20;4.27;;;1.10;99.90;;;;;;7811368;28;20208;-91
2023/03/16 07:16:52;;;;;;;9.30;4.20;;;1.20;99.90;;;;;;7811092;28;20183;-90
2023/03/16 07:20:38;;;;;;;9.30;4.77;;;1.30;99.90;;;;;;7805110;28;20630;-90
2023/03/16 07:24:24;;;;;;;8.83;5.17;;;1.30;99.90;;;;;;7811060;28;20289;-89
2023/03/16 07:28:10;;;;;;;10.13;5.07;;;1.40;99.90;;;;;;7822949;28;20215;-89
2023/03/16 07:31:56;;;;;;;10.43;4.23;;;1.40;99.90;;;;;;7811221;28;20237;-90
2023/03/16 07:35:41;;;;;;;7.70;4.53;;;1.50;99.90;;;;;;7810771;28;20259;-90
2023/03/16 07:39:27;;;;;;;8.73;4.60;;;1.50;99.90;;;;;;7811205;28;20206;-90
2023/03/16 07:43:13;;;;;;;10.63;4.47;;;1.60;99.90;;;;;;7810932;28;20271;-90
2023/03/16 07:46:58;;;;;;;11.97;4.87;;;1.70;99.90;;;;;;7815484;28;20167;-89
2023/03/16 07:50:46;;;;;;;8.50;4.90;;;1.70;99.90;;;;;;7813184;28;20175;-90
2023/03/16 07:54:32;;;;;;;12.67;4.83;;;1.80;99.90;;;;;;7809993;28;20206;-90
2023/03/16 07:58:18;;;;;;;10.33;5.30;;;1.80;99.90;;;;;;7811823;28;20205;-90
2023/03/16 08:02:03;;;;;;;13.20;4.73;;;1.80;99.90;;;;;;7811216;28;20604;-89
2023/03/16 08:05:50;;;;;;;15.47;5.30;;;2.00;99.90;;;;;;7799018;28;20203;-90
2023/03/16 08:09:35;;;;;;;8.70;4.23;;;2.10;99.90;;;;;;7807926;28;20182;-90
2023/03/16 08:13:21;;;;;;;8.93;3.03;;;2.10;99.90;;;;;;7808834;28;20199;-88
2023/03/16 08:17:07;;;;;;;6.70;3.20;;;2.20;99.90;;;;;;7802882;28;20195;-89
2023/03/16 08:20:53;;;;;;;4.47;2.20;;;2.30;99.90;;;;;;7816715;28;20175;-89
2023/03/16 08:24:39;;;;;;;5.63;1.97;;;2.40;99.90;;;;;;7806468;28;20210;-89
2023/03/16 09:39:21;;;;;;;4.77;1.50;;;3.60;99.90;;;;;;7935974;27;20268;-88
2023/03/16 09:43:38;;;;;;;3.70;1.67;;;3.80;99.90;;;;;;7935603;28;20563;-89
2023/03/16 09:47:29;;;;;;;6.43;2.10;;;4.00;99.90;;;;;;7930781;28;20168;-88
2023/03/16 09:51:42;;;;;;;2.33;1.23;;;4.40;99.90;;;;;;7930110;28;20272;-90
2023/03/16 09:55:34;;;;;;;6.70;1.93;;;4.50;99.90;;;;;;7926891;28;20238;-89
2023/03/16 09:59:21;;;;;;;7.13;2.00;;;4.70;99.90;;;;;;7926900;28;20260;-91
2023/03/16 10:03:25;;;;;;;6.27;2.40;;;4.90;99.90;;;;;;7925460;28;20223;-91
2023/03/16 10:07:38;;;;;;;6.77;1.47;;;5.00;99.90;;;;;;7926986;28;20161;-91
2023/03/16 10:11:33;;;;;;;6.70;1.93;;;5.20;99.90;;;;;;7927292;28;20199;-91
2023/03/16 10:15:26;;;;;;;7.47;2.90;;;5.30;99.90;;;;;;7949816;28;20192;-93
2023/03/16 10:19:35;;;;;;;8.00;2.47;;;5.40;99.90;;;;;;7939954;28;20685;-90
2023/03/16 10:23:23;;;;;;;5.17;2.10;;;5.40;99.90;;;;;;7925371;28;20204;-90
2023/03/16 10:27:29;;;;;;;7.70;2.30;;;5.50;99.90;;;;;;7925925;28;20176;-91
2023/03/16 10:31:19;;;;;;;4.17;2.30;;;5.60;99.90;;;;;;7924449;28;20180;-90
2023/03/16 10:35:10;;;;;;;5.37;2.03;;;5.70;99.90;;;;;;7924406;28;20493;-91
2023/03/16 10:39:05;;;;;;;7.17;2.33;;;5.80;99.90;;;;;;7923847;28;20223;-90
2023/03/16 10:42:52;;;;;;;3.77;1.67;;;5.90;99.90;;;;;;7924139;28;20594;-91
2023/03/16 10:46:39;;;;;;;5.37;1.60;;;6.00;99.90;;;;;;7924339;28;20283;-90
2023/03/16 10:50:26;;;;;;;3.83;1.60;;;6.10;99.90;;;;;;7904459;28;20538;-90
2023/03/16 10:54:26;;;;;;;8.60;1.80;;;6.20;99.90;;;;;;7902772;28;20239;-91
2023/03/16 10:58:24;;;;;;;4.33;1.53;;;6.30;99.90;;;;;;7902610;28;20231;-91
2023/03/16 11:02:19;;;;;;;3.30;1.17;;;6.30;99.90;;;;;;7902828;28;20180;-90
2023/03/16 11:06:15;;;;;;;2.50;1.10;;;6.50;99.90;;;;;;7902532;28;20204;-91
2023/03/16 11:10:19;;;;;;;3.33;1.57;;;6.50;99.90;;;;;;7902917;28;20188;-90
2023/03/16 11:14:12;;;;;;;5.43;1.57;;;6.50;99.90;;;;;;7902272;28;20607;-91
2023/03/16 11:17:59;;;;;;;6.30;1.93;;;6.60;99.90;;;;;;7902031;28;20211;-91
2023/03/16 11:22:18;;;;;;;7.77;2.10;;;6.70;99.90;;;;;;7902155;28;20180;-91
2023/03/16 11:26:13;;;;;;;4.50;1.70;;;6.70;98.10;;;;;;7901874;28;20680;-91
2023/03/16 11:30:23;;;;;;;8.23;1.90;;;6.70;98.40;;;;;;7902084;28;20533;-91
2023/03/16 11:34:16;;;;;;;4.67;1.90;;;6.70;97.10;;;;;;7901775;28;20196;-92
2023/03/16 11:38:09;;;;;;;3.67;1.97;;;6.80;95.60;;;;;;7901273;28;20216;-91
2023/03/16 11:42:09;;;;;;;3.93;1.63;;;6.80;94.10;;;;;;7902967;28;20168;-92
2023/03/16 11:46:16;;;;;;;6.13;2.77;;;6.90;95.60;;;;;;7901676;28;20287;-91
2023/03/16 11:50:21;;;;;;;7.93;2.57;;;6.90;96.00;;;;;;7901382;28;20255;-91
2023/03/16 11:54:32;;;;;;;5.27;2.10;;;7.00;95.00;;;;;;7901034;28;20283;-91
2023/03/16 11:58:27;;;;;;;6.10;2.20;;;7.00;94.80;;;;;;7901171;28;20365;-90
2023/03/16 12:02:52;;;;;;;8.47;2.40;;;7.10;92.50;;;;;;7900484;28;20229;-91
2023/03/16 12:06:59;;;;;;;10.30;2.47;;;7.20;93.20;;;;;;7894970;28;20219;-93
2023/03/16 12:10:56;;;;;;;5.40;2.03;;;7.30;93.70;;;;;;7925528;28;20167;-93
2023/03/16 12:15:31;;;;;;;5.40;2.40;;;7.20;88.30;;;;;;7913426;28;20261;-91
2023/03/16 12:19:40;;;;;;;7.13;2.47;;;7.30;92.20;;;;;;7899453;28;20224;-91
2023/03/16 12:23:36;;;;;;;5.97;2.53;;;7.40;92.30;;;;;;7900950;28;20205;-91
2023/03/16 12:27:29;;;;;;;8.53;2.73;;;7.50;92.40;;;;;;7900343;28;20161;-92
2023/03/16 12:31:34;;;;;;;9.30;3.13;;;7.50;91.00;;;;;;7900239;28;20187;-90
2023/03/16 12:35:27;;;;;;;10.77;3.10;;;7.50;90.70;;;;;;7899912;28;20196;-91
2023/03/16 12:39:17;;;;;;;4.60;2.37;;;7.60;91.50;;;;;;7901178;28;20728;-91
2023/03/16 12:43:21;;;;;;;7.77;2.90;;;7.70;90.60;;;;;;7900285;28;20193;-90
2023/03/16 12:47:30;;;;;;;8.50;3.10;;;7.70;90.60;;;;;;7902125;28;20187;-90
2023/03/16 12:51:16;;;;;;;9.13;2.77;;;7.70;91.30;;;;;;7902163;28;20181;-91
2023/03/16 12:55:32;;;;;;;6.80;2.70;;;7.70;90.40;;;;;;7900990;28;20228;-91
2023/03/16 12:59:22;;;;;;;6.23;2.60;;;7.70;90.30;;;;;;7899756;28;20200;-91
2023/03/16 13:03:20;;;;;;;4.37;2.57;;;7.80;90.90;;;;;;7899859;28;20757;-90
2023/03/16 13:07:20;;;;;;;4.97;2.47;;;7.80;90.00;;;;;;7900167;28;20169;-90
2023/03/16 13:11:09;;;;;;;4.10;2.03;;;7.80;88.40;;;;;;7899866;28;20168;-91
2023/03/16 13:14:55;;;;;;;3.57;1.90;;;7.90;90.00;;;;;;7900203;28;20223;-90
2023/03/16 13:18:44;;;;;;;6.33;1.87;;;7.90;89.90;;;;;;7899989;28;20224;-92
2023/03/16 13:23:08;;;;;;;4.90;1.90;;;8.00;90.00;;;;;;7899725;28;20173;-92
2023/03/16 13:27:09;;;;;;;5.30;1.93;;;7.90;87.80;;;;;;7889597;28;20234;-87
2023/03/16 13:30:55;;;;;;;5.60;2.10;;;8.30;88.30;;;;;;7875828;28;20208;-88
2023/03/16 13:34:49;;;;;;;7.23;2.70;;;8.80;87.80;;;;;;7886520;28;20204;-88
2023/03/16 13:38:36;;;;;;;4.03;2.00;;;9.20;85.80;;;;;;7899790;28;20223;-88
2023/03/16 13:42:23;;;;;;;4.03;2.00;;;9.40;86.50;;;;;;7882101;28;20177;-88
2023/03/16 13:46:17;;;;;;;7.13;2.40;;;9.60;82.10;;;;;;7867660;28;20698;-90
2023/03/16 13:50:03;;;;;;;6.83;2.23;;;9.70;83.20;;;;;;7868708;28;20191;-91
2023/03/16 13:53:50;;;;;;;6.40;2.40;;;9.80;83.10;;;;;;7887340;28;20228;-89
2023/03/16 13:57:39;;;;;;;6.43;2.10;;;9.80;83.20;;;;;;7869495;28;20262;-85
2023/03/16 14:01:28;;;;;;;6.57;2.83;;;9.90;84.50;;;;;;7882484;28;20182;-85
2023/03/16 14:05:20;;;;;;;7.27;2.60;;;10.00;83.80;;;;;;7888905;28;20201;-89
2023/03/16 14:09:17;;;;;;;7.83;3.10;;;10.00;84.30;;;;;;7889116;28;20176;-86
2023/03/16 14:13:11;;;;;;;6.40;2.70;;;10.00;82.80;;;;;;7928171;28;20212;-92
2023/03/16 14:17:04;;;;;;;6.90;2.90;;;10.00;83.00;;;;;;7902131;28;20300;-89
2023/03/16 14:20:51;;;;;;;4.10;1.90;;;10.00;81.70;;;;;;7892981;28;20541;-87
2023/03/16 14:24:39;;;;;;;7.67;2.03;;;10.00;80.00;;;;;;7891720;28;20200;-90
2023/03/16 14:28:31;;;;;;;6.83;2.80;;;9.90;80.30;;;;;;7890862;28;20196;-88
2023/03/16 14:32:27;;;;;;;6.47;2.60;;;9.90;79.20;;;;;;7898138;28;20581;-88
2023/03/16 14:36:18;;;;;;;5.30;2.20;;;9.80;80.00;;;;;;7898913;28;20215;-89
2023/03/16 14:40:25;;;;;;;5.57;2.40;;;9.90;80.80;;;;;;7888481;28;20193;-89
2023/03/16 14:44:21;;;;;;;5.03;2.30;;;9.90;79.00;;;;;;7899662;28;20204;-89
2023/03/16 14:48:17;;;;;;;7.33;2.80;;;9.80;79.70;;;;;;7898978;28;20185;-88
2023/03/16 14:52:26;;;;;;;5.47;3.00;;;9.90;81.40;;;;;;7896233;28;20188;-89
2023/03/16 14:56:13;;;;;;;7.37;2.70;;;9.90;80.00;;;;;;7895295;28;20276;-88
2023/03/16 14:59:58;;;;;;;4.73;2.37;;;9.80;79.00;;;;;;7890178;28;20882;-89
2023/03/16 15:03:45;;;;;;;4.53;2.60;;;9.80;79.40;;;;;;7884876;28;20654;-89
2023/03/16 15:07:34;;;;;;;5.73;2.73;;;9.80;78.40;;;;;;7899916;28;20259;-88
2023/03/16 15:11:23;;;;;;;4.17;2.10;;;9.70;77.20;;;;;;7889750;28;20188;-88
2023/03/16 15:15:17;;;;;;;5.30;2.37;;;9.70;77.30;;;;;;7890959;28;20209;-89
2023/03/16 15:19:04;;;;;;;6.30;2.20;;;9.60;77.80;;;;;;7889411;28;20923;-89
2023/03/16 15:22:52;;;;;;;8.67;2.10;;;9.60;78.40;;;;;;7885650;28;20598;-88
2023/03/16 15:26:40;;;;;;;4.83;2.17;;;9.60;76.70;;;;;;7886782;28;20185;-88
2023/03/16 15:30:29;;;;;;;3.70;2.27;;;9.70;77.00;;;;;;7902274;28;20821;-89
2023/03/16 15:34:15;;;;;;;4.00;2.50;;;9.60;76.70;;;;;;7888839;28;20200;-88
2023/03/16 15:38:14;;;;;;;7.13;2.53;;;9.60;77.30;;;;;;7905759;28;20230;-89
2023/03/16 15:42:00;;;;;;;4.73;3.00;;;9.50;78.40;;;;;;7906280;28;20837;-80
2023/03/16 15:45:46;;;;;;;7.17;3.30;;;9.50;78.40;;;;;;7900715;28;20729;-89
2023/03/16 15:49:32;;;;;;;6.97;3.30;;;9.50;77.60;;;;;;7876964;28;20182;-93
2023/03/16 15:53:31;;;;;;;5.10;2.97;;;9.50;78.10;;;;;;7879153;28;20351;-90
2023/03/16 15:57:17;;;;;;;6.50;3.53;;;9.40;78.10;;;;;;7890499;28;20587;-88
2023/03/16 16:01:04;;;;;;;7.60;4.00;;;9.30;78.30;;;;;;7887050;28;20204;-89
2023/03/16 16:04:52;;;;;;;9.83;3.40;;;9.30;79.10;;;;;;7903481;28;20203;-91
2023/03/16 16:08:38;;;;;;;5.47;2.77;;;9.20;79.20;;;;;;7891579;28;20679;-90
2023/03/16 16:12:25;;;;;;;6.27;3.00;;;9.20;79.30;;;;;;7903307;28;20173;-88
2023/03/16 16:16:15;;;;;;;6.23;3.47;;;9.10;81.00;;;;;;7894087;28;20247;-90
2023/03/16 16:20:01;;;;;;;5.10;2.77;;;9.10;81.00;;;;;;7903125;28;20165;-90
2023/03/16 16:23:47;;;;;;;6.57;3.00;;;9.00;79.50;;;;;;7876152;28;20209;-90
2023/03/16 16:27:33;;;;;;;5.20;3.00;;;9.00;80.40;;;;;;7888274;28;20189;-89
2023/03/16 16:31:23;;;;;;;5.87;2.63;;;8.90;79.70;;;;;;7881216;28;20200;-90
2023/03/16 16:35:21;;;;;;;6.33;3.20;;;8.80;81.90;;;;;;7898495;28;20369;-90
2023/03/16 16:39:07;;;;;;;5.17;3.10;;;8.80;82.60;;;;;;7884653;28;20220;-88
2023/03/16 16:42:55;;;;;;;5.13;3.10;;;8.70;82.60;;;;;;7883208;28;20249;-91
2023/03/16 16:46:41;;;;;;;7.10;3.50;;;8.70;83.10;;;;;;7891345;28;20199;-93
2023/03/16 16:50:27;;;;;;;5.90;3.20;;;8.60;83.20;;;;;;7882627;28;20185;-89
2023/03/16 16:54:18;;;;;;;4.13;3.20;;;8.60;84.10;;;;;;7873600;28;20205;-91
2023/03/16 16:58:08;;;;;;;5.43;2.80;;;8.50;84.70;;;;;;7892751;28;20744;-90
2023/03/16 17:01:56;;;;;;;5.80;2.70;;;8.40;86.10;;;;;;7893053;28;20180;-90
2023/03/16 17:05:43;;;;;;;4.93;3.07;;;8.30;87.10;;;;;;7883965;28;20205;-89
2023/03/16 17:09:29;;;;;;;7.10;3.40;;;8.30;87.80;;;;;;7878340;28;20268;-90
2023/03/16 17:13:37;;;;;;;5.90;2.90;;;8.20;88.30;;;;;;7886438;28;20223;-90
2023/03/16 17:17:24;;;;;;;6.53;3.27;;;8.10;89.40;;;;;;7888724;28;20208;-90
2023/03/16 17:21:18;;;;;;;6.03;3.20;;;8.00;90.10;;;;;;7889087;28;20889;-83
2023/03/16 17:25:04;;;;;;;6.73;3.27;;;8.00;90.50;;;;;;7893196;28;20196;-90
2023/03/16 17:29:05;;;;;;;7.03;3.20;;;7.90;90.30;;;;;;7892688;28;20628;-90
2023/03/16 17:32:54;;;;;;;9.73;3.70;;;7.80;90.60;;;;;;7887550;28;20188;-89
2023/03/16 17:36:39;;;;;;;7.53;3.57;;;7.80;90.60;;;;;;7881440;28;20708;-89
2023/03/16 17:40:25;;;;;;;5.90;3.40;;;7.80;90.50;;;;;;7887002;28;20177;-91
2023/03/16 17:44:13;;;;;;;7.23;3.63;;;7.70;90.60;;;;;;7882995;28;20662;-91
2023/03/16 17:48:01;;;;;;;5.53;3.40;;;7.60;90.90;;;;;;7889350;28;20565;-91
2023/03/16 17:51:47;;;;;;;8.30;3.20;;;7.60;91.20;;;;;;7888644;28;20550;-88
2023/03/16 17:55:34;;;;;;;7.97;3.63;;;7.60;91.40;;;;;;7891184;28;20204;-91
2023/03/16 17:59:24;;;;;;;8.80;3.37;;;7.50;91.90;;;;;;7895542;28;20697;-92
2023/03/16 18:03:13;;;;;;;6.87;3.60;;;7.50;91.90;;;;;;7900005;28;20329;-91
2023/03/16 18:06:58;;;;;;;5.53;3.60;;;7.40;92.30;;;;;;7900355;28;20246;-90
2023/03/16 18:10:59;;;;;;;7.43;3.53;;;7.40;92.70;;;;;;7931067;28;20184;-91
2023/03/16 18:14:46;;;;;;;6.70;3.70;;;7.30;92.80;;;;;;7903518;28;20781;-91
2023/03/16 18:18:36;;;;;;;7.87;4.43;;;7.30;92.90;;;;;;7884214;28;20291;-90
2023/03/16 18:22:24;;;;;;;9.87;4.43;;;7.20;93.10;;;;;;7889380;28;20291;-89
2023/03/16 18:26:10;;;;;;;7.10;4.30;;;7.20;93.40;;;;;;7901894;28;20203;-90
2023/03/16 18:29:56;;;;;;;8.77;4.67;;;7.10;93.70;;;;;;7897224;28;20208;-90
2023/03/16 18:33:45;;;;;;;8.70;4.23;;;7.10;94.30;;;;;;7893459;28;20201;-92
2023/03/16 18:37:31;;;;;;;6.73;4.03;;;7.10;94.50;;;;;;7905896;28;20251;-92
2023/03/16 18:41:28;;;;;;;7.63;3.67;;;7.10;94.80;;;;;;7904095;28;20181;-92
2023/03/16 18:45:15;;;;;;;7.47;3.83;;;7.00;94.80;;;;;;7917256;28;20269;-91
2023/03/16 18:49:13;;;;;;;7.50;3.70;;;7.00;95.10;;;;;;7918226;28;20173;-93
2023/03/16 18:52:58;;;;;;;10.23;4.00;;;7.00;95.20;;;;;;7912878;28;20199;-92
2023/03/16 18:56:44;;;;;;;6.10;3.50;;;7.00;95.30;;;;;;7926716;28;20200;-92
2023/03/16 19:00:32;;;;;;;10.50;3.93;;;7.00;95.50;;;;;;7902926;28;20172;-91
2023/03/16 19:04:23;;;;;;;7.47;3.60;;;7.00;96.10;;;;;;7890894;28;20261;-88
2023/03/16 19:08:13;;;;;;;9.60;3.70;;;6.90;96.30;;;;;;7890685;28;20177;-88
2023/03/16 19:12:02;;;;;;;7.90;4.00;;;6.80;95.90;;;;;;7896984;28;20184;-89
2023/03/16 19:15:56;;;;;;;5.67;3.47;;;6.80;96.10;;;;;;7900963;28;20212;-90
2023/03/16 19:19:43;;;;;;;7.87;3.87;;;6.70;96.30;;;;;;7891852;28;20222;-90
2023/03/16 19:23:33;;;;;;;7.30;3.70;;;6.70;96.00;;;;;;7876914;28;20207;-90
2023/03/16 19:27:37;;;;;;;7.00;3.80;;;6.80;96.90;;;;;;7891844;28;20216;-92
2023/03/16 19:31:28;;;;;;;6.43;3.87;;;6.70;97.20;;;;;;7878433;28;20192;-91
2023/03/16 19:35:16;;;;;;;6.87;3.33;;;6.70;97.40;;;;;;7887694;28;20208;-89
2023/03/16 19:39:03;;;;;;;7.73;3.97;;;6.60;98.60;;;;;;7883662;28;20204;-91
2023/03/16 19:42:52;;;;;;;10.13;4.00;;;6.60;98.00;;;;;;7890851;28;20204;-90
2023/03/16 19:46:38;;;;;;;11.10;4.00;;;6.60;98.40;;;;;;7896472;28;20567;-89
2023/03/16 19:50:25;;;;;;;7.07;3.63;;;6.50;98.60;;;;;;7875840;28;20268;-90
2023/03/16 19:54:32;;;;;;;6.63;3.73;;;6.50;98.60;;;;;;7884984;28;20257;-90
2023/03/16 19:58:32;;;;;;;7.70;3.93;;;6.40;99.10;;;;;;7900273;28;20666;-89
2023/03/16 20:02:39;;;;;;;8.97;4.30;;;6.40;99.90;;;;;;7894686;28;20226;-89
2023/03/16 20:06:26;;;;;;;7.67;4.27;;;6.30;99.80;;;;;;7908200;28;20233;-88
2023/03/16 20:10:21;;;;;;;7.07;4.43;;;6.30;99.90;;;;;;7902389;28;20201;-91
2023/03/16 20:14:45;;;;;;;9.83;4.37;;;6.30;99.90;;;;;;7892399;28;20204;-86
2023/03/16 20:18:31;;;;;;;9.27;4.10;;;6.20;99.60;;;;;;7816627;28;20554;-90
2023/03/16 20:22:22;;;;;;;7.30;4.00;;;6.10;99.90;;;;;;7812091;28;20767;-90
2023/03/16 20:26:16;;;;;;;5.23;3.90;;;6.20;99.90;;;;;;7813673;28;20198;-91
2023/03/16 20:30:02;;;;;;;7.77;3.77;;;6.00;99.90;;;;;;7817076;28;20281;-90
2023/03/16 20:33:50;;;;;;;7.37;4.30;;;6.10;99.90;;;;;;7835511;28;20225;-90
2023/03/16 20:37:36;;;;;;;7.47;4.27;;;6.10;99.90;;;;;;7817276;28;20210;-91
2023/03/16 20:41:29;;;;;;;5.73;4.13;;;6.00;99.90;;;;;;7809860;28;20702;-89
2023/03/16 20:45:22;;;;;;;7.83;4.10;;;6.00;99.90;;;;;;7825112;28;20698;-90
2023/03/16 20:49:29;;;;;;;6.83;4.10;;;6.00;99.90;;;;;;7852072;28;20580;-89
2023/03/16 20:53:14;;;;;;;6.67;4.10;;;6.00;99.90;;;;;;7894720;28;20331;-89
2023/03/16 20:57:05;;;;;;;10.07;4.50;;;5.90;99.90;;;;;;7882294;28;20235;-89
2023/03/16 21:01:00;;;;;;;6.33;4.80;;;5.90;99.90;;;;;;7887729;28;20334;-89
2023/03/16 21:04:45;;;;;;;9.63;4.30;;;5.90;99.90;;;;;;7883214;28;20201;-90
2023/03/16 21:08:31;;;;;;;7.43;4.70;;;5.80;99.90;;;;;;7885640;28;20201;-89
2023/03/16 21:12:19;;;;;;;8.50;4.43;;;5.90;99.90;;;;;;7882455;28;20195;-90
2023/03/16 21:16:09;;;;;;;8.10;4.37;;;5.70;99.90;;;;;;7896584;28;20320;-90
2023/03/16 21:19:55;;;;;;;6.83;4.40;;;5.70;99.90;;;;;;7887241;28;20192;-89
2023/03/16 21:23:41;;;;;;;8.93;4.13;;;5.70;99.90;;;;;;7881369;28;20205;-90
2023/03/16 21:27:30;;;;;;;6.70;4.00;;;5.50;99.90;;;;;;7891444;28;20330;-90